Elroy, Wisconsin
Current Conditions -  °F | °C
As of 8:58 AM on Thursday 23 Oct 2014 (Local Time) from KVOK Reporting Station
Light Rain Light Rain  
Wind Chill: 45°   Ceiling: 6000
Heat Index: 48°   Visibility: 4mi
Dew Point: 43°   Wind: 7mph
Humidity: 82%   Direction: 160°SSE
Pressure: 30.08"   Gusts: NA
Location:  43.74°N, 90.27°W
Report Text: KVOK 231358Z 16006KT 4SM -RA BR FEW019 SCT046 OVC060 09/06 A3008 RMK AO2A SLP194
Loading
Personal Weather Stations






























Interactive Weather Map
Tropical Storm Tracking
New forecast layout! Learn more

10-Day Weather Forecast

Advertisements
Track Severe Weather on mobile